Zealandia, Canada
Current Conditions -  °F | °C
As of 1:00 AM on Sunday 21 Dec 2014 (Local Time) from CYXE Reporting Station
Moderate Fog Moderate Fog  
Wind Chill: 14°   Ceiling: 200
Heat Index: 21°   Visibility: 0.5mi
Dew Point: 19°   Wind: 6mph
Humidity: 93%   Direction: 180°S
Pressure: 29.59"   Gusts: NA
Location:  51.62°N, 107.75°W
Report Text: CYXE 210700Z 18005KT 1/2SM R09/2800VP6000FT/D FZFG VV002 M06/M07 A2959 RMK FG8 SLP051
Loading
Personal Weather Stations






























Interactive Weather Map New forecast layout! Learn more

10-Day Weather Forecast

Advertisements
Track Severe Weather on mobile